sensor_id;sensor_type;location;lat;lon;timestamp;temperature;humidity
23089;DHT22;11713;48.506;8.966;2023-07-30T00:02:21;18.80;99.90
23089;DHT22;11713;48.506;8.966;2023-07-30T00:04:47;18.80;99.90
23089;DHT22;11713;48.506;8.966;2023-07-30T00:07:13;18.80;99.90
23089;DHT22;11713;48.506;8.966;2023-07-30T00:09:39;18.80;99.90
23089;DHT22;11713;48.506;8.966;2023-07-30T00:12:06;18.80;99.90
23089;DHT22;11713;48.506;8.966;2023-07-30T00:14:32;18.70;99.90
23089;DHT22;11713;48.506;8.966;2023-07-30T00:16:58;18.70;99.90
23089;DHT22;11713;48.506;8.966;2023-07-30T00:19:24;18.70;99.90
23089;DHT22;11713;48.506;8.966;2023-07-30T00:21:50;18.70;99.90
23089;DHT22;11713;48.506;8.966;2023-07-30T00:24:16;18.70;99.90
23089;DHT22;11713;48.506;8.966;2023-07-30T00:26:41;18.70;99.90
23089;DHT22;11713;48.506;8.966;2023-07-30T00:29:07;18.70;99.90
23089;DHT22;11713;48.506;8.966;2023-07-30T00:31:33;18.70;99.90
23089;DHT22;11713;48.506;8.966;2023-07-30T00:33:59;18.70;99.90
23089;DHT22;11713;48.506;8.966;2023-07-30T00:36:25;18.60;99.90
23089;DHT22;11713;48.506;8.966;2023-07-30T00:38:51;18.60;99.90
23089;DHT22;11713;48.506;8.966;2023-07-30T00:41:17;18.60;99.90
23089;DHT22;11713;48.506;8.966;2023-07-30T00:43:43;18.50;99.90
23089;DHT22;11713;48.506;8.966;2023-07-30T00:46:09;18.50;99.90
23089;DHT22;11713;48.506;8.966;2023-07-30T00:48:36;18.50;99.90
23089;DHT22;11713;48.506;8.966;2023-07-30T00:51:03;18.40;99.90
23089;DHT22;11713;48.506;8.966;2023-07-30T00:53:31;18.40;99.90
23089;DHT22;11713;48.506;8.966;2023-07-30T00:55:57;18.40;99.90
23089;DHT22;11713;48.506;8.966;2023-07-30T00:58:23;18.40;99.90
23089;DHT22;11713;48.506;8.966;2023-07-30T01:00:53;18.40;99.90
23089;DHT22;11713;48.506;8.966;2023-07-30T01:03:21;18.40;99.90
23089;DHT22;11713;48.506;8.966;2023-07-30T01:05:47;18.40;99.90
23089;DHT22;11713;48.506;8.966;2023-07-30T01:08:13;18.40;99.90
23089;DHT22;11713;48.506;8.966;2023-07-30T01:10:40;18.40;99.90
23089;DHT22;11713;48.506;8.966;2023-07-30T01:13:08;18.40;99.90
23089;DHT22;11713;48.506;8.966;2023-07-30T01:15:35;18.40;99.90
23089;DHT22;11713;48.506;8.966;2023-07-30T01:18:01;18.40;99.90
23089;DHT22;11713;48.506;8.966;2023-07-30T01:20:31;18.40;99.90
23089;DHT22;11713;48.506;8.966;2023-07-30T01:22:58;18.30;99.90
23089;DHT22;11713;48.506;8.966;2023-07-30T01:25:27;18.20;99.90
23089;DHT22;11713;48.506;8.966;2023-07-30T01:27:55;18.10;99.90
23089;DHT22;11713;48.506;8.966;2023-07-30T01:30:30;18.10;99.90
23089;DHT22;11713;48.506;8.966;2023-07-30T01:32:58;18.10;99.90
23089;DHT22;11713;48.506;8.966;2023-07-30T01:35:26;18.10;99.90
23089;DHT22;11713;48.506;8.966;2023-07-30T01:37:52;18.00;99.90
23089;DHT22;11713;48.506;8.966;2023-07-30T01:40:20;18.00;99.90
23089;DHT22;11713;48.506;8.966;2023-07-30T01:42:46;18.10;99.90
23089;DHT22;11713;48.506;8.966;2023-07-30T01:45:12;18.00;99.90
23089;DHT22;11713;48.506;8.966;2023-07-30T01:47:38;17.90;99.90
23089;DHT22;11713;48.506;8.966;2023-07-30T01:50:04;17.90;99.90
23089;DHT22;11713;48.506;8.966;2023-07-30T01:52:30;17.90;99.90
23089;DHT22;11713;48.506;8.966;2023-07-30T01:54:55;17.80;99.90
23089;DHT22;11713;48.506;8.966;2023-07-30T01:57:23;17.80;99.90
23089;DHT22;11713;48.506;8.966;2023-07-30T01:59:49;17.70;99.90
23089;DHT22;11713;48.506;8.966;2023-07-30T02:02:15;17.70;99.90
23089;DHT22;11713;48.506;8.966;2023-07-30T02:04:41;17.70;99.90
23089;DHT22;11713;48.506;8.966;2023-07-30T02:07:06;17.60;99.90
23089;DHT22;11713;48.506;8.966;2023-07-30T02:09:32;17.70;99.90
23089;DHT22;11713;48.506;8.966;2023-07-30T02:12:00;17.60;99.90
23089;DHT22;11713;48.506;8.966;2023-07-30T02:14:26;17.50;99.90
23089;DHT22;11713;48.506;8.966;2023-07-30T02:16:52;17.30;99.90
23089;DHT22;11713;48.506;8.966;2023-07-30T02:19:18;17.30;99.90
23089;DHT22;11713;48.506;8.966;2023-07-30T02:21:44;17.30;99.90
23089;DHT22;11713;48.506;8.966;2023-07-30T02:24:10;17.30;99.90
23089;DHT22;11713;48.506;8.966;2023-07-30T02:26:40;17.30;99.90
23089;DHT22;11713;48.506;8.966;2023-07-30T02:29:06;17.40;99.90
23089;DHT22;11713;48.506;8.966;2023-07-30T02:31:32;17.40;99.90
23089;DHT22;11713;48.506;8.966;2023-07-30T02:33:58;17.30;99.90
23089;DHT22;11713;48.506;8.966;2023-07-30T02:36:24;17.30;99.90
23089;DHT22;11713;48.506;8.966;2023-07-30T02:38:50;17.30;99.90
23089;DHT22;11713;48.506;8.966;2023-07-30T02:41:16;17.40;99.90
23089;DHT22;11713;48.506;8.966;2023-07-30T02:43:42;17.40;99.90
23089;DHT22;11713;48.506;8.966;2023-07-30T02:46:08;17.40;99.90
23089;DHT22;11713;48.506;8.966;2023-07-30T02:48:34;17.40;99.90
23089;DHT22;11713;48.506;8.966;2023-07-30T02:51:00;17.40;99.90
23089;DHT22;11713;48.506;8.966;2023-07-30T02:53:26;17.40;99.90
23089;DHT22;11713;48.506;8.966;2023-07-30T02:55:51;17.40;99.90
23089;DHT22;11713;48.506;8.966;2023-07-30T02:58:18;17.40;99.90
23089;DHT22;11713;48.506;8.966;2023-07-30T03:00:44;17.40;99.90
23089;DHT22;11713;48.506;8.966;2023-07-30T03:03:10;17.40;99.90
23089;DHT22;11713;48.506;8.966;2023-07-30T03:05:35;17.40;99.90
23089;DHT22;11713;48.506;8.966;2023-07-30T03:08:01;17.30;99.90
23089;DHT22;11713;48.506;8.966;2023-07-30T03:10:27;17.40;99.90
23089;DHT22;11713;48.506;8.966;2023-07-30T03:12:53;17.40;99.90
23089;DHT22;11713;48.506;8.966;2023-07-30T03:15:19;17.30;99.90
23089;DHT22;11713;48.506;8.966;2023-07-30T03:17:44;17.40;99.90
23089;DHT22;11713;48.506;8.966;2023-07-30T03:20:10;17.40;99.90
23089;DHT22;11713;48.506;8.966;2023-07-30T03:22:38;17.40;99.90
23089;DHT22;11713;48.506;8.966;2023-07-30T03:25:04;17.50;99.90
23089;DHT22;11713;48.506;8.966;2023-07-30T03:27:30;17.50;99.90
23089;DHT22;11713;48.506;8.966;2023-07-30T03:29:56;17.50;99.90
23089;DHT22;11713;48.506;8.966;2023-07-30T03:32:22;17.50;99.90
23089;DHT22;11713;48.506;8.966;2023-07-30T03:34:48;17.40;99.90
23089;DHT22;11713;48.506;8.966;2023-07-30T03:37:14;17.40;99.90
23089;DHT22;11713;48.506;8.966;2023-07-30T03:39:40;17.40;99.90
23089;DHT22;11713;48.506;8.966;2023-07-30T03:42:06;17.40;99.90
23089;DHT22;11713;48.506;8.966;2023-07-30T03:44:34;17.50;99.90
23089;DHT22;11713;48.506;8.966;2023-07-30T03:47:00;17.50;99.90
23089;DHT22;11713;48.506;8.966;2023-07-30T03:49:26;17.50;99.90
23089;DHT22;11713;48.506;8.966;2023-07-30T03:51:54;17.50;99.90
23089;DHT22;11713;48.506;8.966;2023-07-30T03:54:20;17.50;99.90
23089;DHT22;11713;48.506;8.966;2023-07-30T03:56:46;17.60;99.90
23089;DHT22;11713;48.506;8.966;2023-07-30T03:59:11;17.60;99.90
23089;DHT22;11713;48.506;8.966;2023-07-30T04:01:37;17.60;99.90
23089;DHT22;11713;48.506;8.966;2023-07-30T04:04:03;17.60;99.90
23089;DHT22;11713;48.506;8.966;2023-07-30T04:06:29;17.60;99.90
23089;DHT22;11713;48.506;8.966;2023-07-30T04:08:55;17.60;99.90
23089;DHT22;11713;48.506;8.966;2023-07-30T04:11:21;17.70;99.90
23089;DHT22;11713;48.506;8.966;2023-07-30T04:13:46;17.70;99.90
23089;DHT22;11713;48.506;8.966;2023-07-30T04:16:12;17.70;99.90
23089;DHT22;11713;48.506;8.966;2023-07-30T04:18:38;17.70;99.90
23089;DHT22;11713;48.506;8.966;2023-07-30T04:21:04;17.70;99.90
23089;DHT22;11713;48.506;8.966;2023-07-30T04:23:30;17.70;99.90
23089;DHT22;11713;48.506;8.966;2023-07-30T04:25:56;17.70;99.90
23089;DHT22;11713;48.506;8.966;2023-07-30T04:28:21;17.70;99.90
23089;DHT22;11713;48.506;8.966;2023-07-30T04:30:47;17.70;99.90
23089;DHT22;11713;48.506;8.966;2023-07-30T04:33:13;17.70;99.90
23089;DHT22;11713;48.506;8.966;2023-07-30T04:35:42;17.70;99.90
23089;DHT22;11713;48.506;8.966;2023-07-30T04:38:08;17.70;99.90
23089;DHT22;11713;48.506;8.966;2023-07-30T04:40:34;17.80;99.90
23089;DHT22;11713;48.506;8.966;2023-07-30T04:43:00;17.80;99.90
23089;DHT22;11713;48.506;8.966;2023-07-30T04:45:27;17.80;99.90
23089;DHT22;11713;48.506;8.966;2023-07-30T04:47:53;17.80;99.90
23089;DHT22;11713;48.506;8.966;2023-07-30T04:50:19;17.80;99.90
23089;DHT22;11713;48.506;8.966;2023-07-30T04:52:45;17.80;99.90
23089;DHT22;11713;48.506;8.966;2023-07-30T04:55:11;17.80;99.90
23089;DHT22;11713;48.506;8.966;2023-07-30T04:57:36;17.80;99.90
23089;DHT22;11713;48.506;8.966;2023-07-30T05:00:03;17.80;99.90
23089;DHT22;11713;48.506;8.966;2023-07-30T05:02:30;17.80;99.90
23089;DHT22;11713;48.506;8.966;2023-07-30T05:04:55;17.80;99.90
23089;DHT22;11713;48.506;8.966;2023-07-30T05:07:21;17.80;99.90
23089;DHT22;11713;48.506;8.966;2023-07-30T05:09:47;17.90;99.90
23089;DHT22;11713;48.506;8.966;2023-07-30T05:12:13;17.90;99.90
23089;DHT22;11713;48.506;8.966;2023-07-30T05:14:38;17.90;99.90
23089;DHT22;11713;48.506;8.966;2023-07-30T05:17:04;18.00;99.90
23089;DHT22;11713;48.506;8.966;2023-07-30T05:19:33;18.00;99.90
23089;DHT22;11713;48.506;8.966;2023-07-30T05:21:59;18.10;99.90
23089;DHT22;11713;48.506;8.966;2023-07-30T05:24:27;18.20;99.90
23089;DHT22;11713;48.506;8.966;2023-07-30T05:26:53;18.30;99.90
23089;DHT22;11713;48.506;8.966;2023-07-30T05:29:19;18.30;99.90
23089;DHT22;11713;48.506;8.966;2023-07-30T05:31:45;18.40;99.90
23089;DHT22;11713;48.506;8.966;2023-07-30T05:34:10;18.40;99.90
23089;DHT22;11713;48.506;8.966;2023-07-30T05:36:36;18.50;99.90
23089;DHT22;11713;48.506;8.966;2023-07-30T05:39:02;18.50;99.90
23089;DHT22;11713;48.506;8.966;2023-07-30T05:41:28;18.60;99.90
23089;DHT22;11713;48.506;8.966;2023-07-30T05:43:54;18.50;99.90
23089;DHT22;11713;48.506;8.966;2023-07-30T05:46:20;18.50;99.90
23089;DHT22;11713;48.506;8.966;2023-07-30T05:48:46;18.60;99.90
23089;DHT22;11713;48.506;8.966;2023-07-30T05:51:12;18.50;99.90
23089;DHT22;11713;48.506;8.966;2023-07-30T05:53:38;18.60;99.90
23089;DHT22;11713;48.506;8.966;2023-07-30T05:56:04;18.60;99.90
23089;DHT22;11713;48.506;8.966;2023-07-30T05:58:31;18.60;99.90
23089;DHT22;11713;48.506;8.966;2023-07-30T06:00:57;18.60;99.90
23089;DHT22;11713;48.506;8.966;2023-07-30T06:03:23;18.70;99.90
23089;DHT22;11713;48.506;8.966;2023-07-30T06:05:49;18.70;99.90
23089;DHT22;11713;48.506;8.966;2023-07-30T06:08:15;18.60;99.90
23089;DHT22;11713;48.506;8.966;2023-07-30T06:10:42;18.70;99.90
23089;DHT22;11713;48.506;8.966;2023-07-30T06:13:08;18.70;99.90
23089;DHT22;11713;48.506;8.966;2023-07-30T06:15:34;18.80;99.90
23089;DHT22;11713;48.506;8.966;2023-07-30T06:18:03;18.80;99.90
23089;DHT22;11713;48.506;8.966;2023-07-30T06:20:29;18.90;99.90
23089;DHT22;11713;48.506;8.966;2023-07-30T06:22:55;18.90;99.90
23089;DHT22;11713;48.506;8.966;2023-07-30T06:25:21;18.90;99.90
23089;DHT22;11713;48.506;8.966;2023-07-30T06:27:47;18.90;99.90
23089;DHT22;11713;48.506;8.966;2023-07-30T06:30:13;18.90;99.90
23089;DHT22;11713;48.506;8.966;2023-07-30T06:32:39;19.00;99.90
23089;DHT22;11713;48.506;8.966;2023-07-30T06:35:05;19.10;99.90
23089;DHT22;11713;48.506;8.966;2023-07-30T06:37:31;19.30;99.90
23089;DHT22;11713;48.506;8.966;2023-07-30T06:39:57;19.40;99.90
23089;DHT22;11713;48.506;8.966;2023-07-30T06:42:22;19.50;99.90
23089;DHT22;11713;48.506;8.966;2023-07-30T06:44:48;19.60;99.90
23089;DHT22;11713;48.506;8.966;2023-07-30T06:47:14;19.70;99.90
23089;DHT22;11713;48.506;8.966;2023-07-30T06:49:40;19.70;99.90
23089;DHT22;11713;48.506;8.966;2023-07-30T06:52:07;19.60;99.90
23089;DHT22;11713;48.506;8.966;2023-07-30T06:54:33;19.70;99.90
23089;DHT22;11713;48.506;8.966;2023-07-30T06:56:59;19.60;99.90
23089;DHT22;11713;48.506;8.966;2023-07-30T06:59:25;19.60;99.90
23089;DHT22;11713;48.506;8.966;2023-07-30T07:01:51;19.60;99.90
23089;DHT22;11713;48.506;8.966;2023-07-30T07:04:19;19.60;99.90
23089;DHT22;11713;48.506;8.966;2023-07-30T07:06:44;19.60;99.90
23089;DHT22;11713;48.506;8.966;2023-07-30T07:09:10;19.50;99.90
23089;DHT22;11713;48.506;8.966;2023-07-30T07:11:36;19.50;99.90
23089;DHT22;11713;48.506;8.966;2023-07-30T07:14:02;19.40;99.90
23089;DHT22;11713;48.506;8.966;2023-07-30T07:16:28;19.40;99.90
23089;DHT22;11713;48.506;8.966;2023-07-30T07:18:54;19.50;99.90
23089;DHT22;11713;48.506;8.966;2023-07-30T07:21:20;19.40;99.90
23089;DHT22;11713;48.506;8.966;2023-07-30T07:23:46;19.40;99.90
23089;DHT22;11713;48.506;8.966;2023-07-30T07:26:12;19.40;99.90
23089;DHT22;11713;48.506;8.966;2023-07-30T07:28:38;19.50;99.90
23089;DHT22;11713;48.506;8.966;2023-07-30T07:31:04;19.50;99.90
23089;DHT22;11713;48.506;8.966;2023-07-30T07:33:30;19.50;99.90
23089;DHT22;11713;48.506;8.966;2023-07-30T07:36:03;19.50;99.90
23089;DHT22;11713;48.506;8.966;2023-07-30T07:38:30;19.50;99.90
23089;DHT22;11713;48.506;8.966;2023-07-30T07:40:56;19.50;99.90
23089;DHT22;11713;48.506;8.966;2023-07-30T07:43:22;19.50;99.90
23089;DHT22;11713;48.506;8.966;2023-07-30T07:45:47;19.50;99.90
23089;DHT22;11713;48.506;8.966;2023-07-30T07:48:13;19.40;99.90
23089;DHT22;11713;48.506;8.966;2023-07-30T07:50:39;19.40;99.90
23089;DHT22;11713;48.506;8.966;2023-07-30T07:53:06;19.40;99.90
23089;DHT22;11713;48.506;8.966;2023-07-30T07:55:33;19.50;99.90
23089;DHT22;11713;48.506;8.966;2023-07-30T07:57:59;19.60;99.90
23089;DHT22;11713;48.506;8.966;2023-07-30T08:00:25;19.70;99.90
23089;DHT22;11713;48.506;8.966;2023-07-30T08:02:50;19.80;99.90
23089;DHT22;11713;48.506;8.966;2023-07-30T08:05:16;19.90;99.90
23089;DHT22;11713;48.506;8.966;2023-07-30T08:07:48;20.10;99.90
23089;DHT22;11713;48.506;8.966;2023-07-30T08:10:13;20.30;99.90
23089;DHT22;11713;48.506;8.966;2023-07-30T08:12:39;20.40;99.90
23089;DHT22;11713;48.506;8.966;2023-07-30T08:15:06;20.60;99.90
23089;DHT22;11713;48.506;8.966;2023-07-30T08:17:32;20.80;99.90
23089;DHT22;11713;48.506;8.966;2023-07-30T08:19:58;20.90;99.90
23089;DHT22;11713;48.506;8.966;2023-07-30T08:22:24;20.90;99.90
23089;DHT22;11713;48.506;8.966;2023-07-30T08:24:50;20.90;99.90
23089;DHT22;11713;48.506;8.966;2023-07-30T08:27:16;20.90;99.90
23089;DHT22;11713;48.506;8.966;2023-07-30T08:29:42;21.00;99.90
23089;DHT22;11713;48.506;8.966;2023-07-30T08:32:08;21.10;99.90
23089;DHT22;11713;48.506;8.966;2023-07-30T08:34:33;21.10;99.90
23089;DHT22;11713;48.506;8.966;2023-07-30T08:36:59;21.20;99.90
23089;DHT22;11713;48.506;8.966;2023-07-30T08:39:26;21.20;99.90
23089;DHT22;11713;48.506;8.966;2023-07-30T08:41:52;21.30;99.90
23089;DHT22;11713;48.506;8.966;2023-07-30T08:44:18;21.40;99.90
23089;DHT22;11713;48.506;8.966;2023-07-30T08:46:43;21.40;99.90
23089;DHT22;11713;48.506;8.966;2023-07-30T08:49:09;21.50;99.90
23089;DHT22;11713;48.506;8.966;2023-07-30T08:51:36;21.60;99.90
23089;DHT22;11713;48.506;8.966;2023-07-30T08:54:05;21.70;99.90
23089;DHT22;11713;48.506;8.966;2023-07-30T08:56:32;21.70;99.90
23089;DHT22;11713;48.506;8.966;2023-07-30T08:58:59;21.80;99.90
23089;DHT22;11713;48.506;8.966;2023-07-30T09:01:30;21.80;99.90
23089;DHT22;11713;48.506;8.966;2023-07-30T09:03:58;21.80;99.90
23089;DHT22;11713;48.506;8.966;2023-07-30T09:06:26;21.80;99.90
23089;DHT22;11713;48.506;8.966;2023-07-30T09:08:52;21.80;99.90
23089;DHT22;11713;48.506;8.966;2023-07-30T09:11:18;21.60;99.90
23089;DHT22;11713;48.506;8.966;2023-07-30T09:13:46;21.40;99.90
23089;DHT22;11713;48.506;8.966;2023-07-30T09:16:13;21.30;99.90
23089;DHT22;11713;48.506;8.966;2023-07-30T09:18:45;21.20;99.90
23089;DHT22;11713;48.506;8.966;2023-07-30T09:21:12;21.00;99.90
23089;DHT22;11713;48.506;8.966;2023-07-30T09:23:46;21.00;99.90
23089;DHT22;11713;48.506;8.966;2023-07-30T09:26:13;20.80;99.90
23089;DHT22;11713;48.506;8.966;2023-07-30T09:28:42;20.60;99.90
23089;DHT22;11713;48.506;8.966;2023-07-30T09:31:09;20.50;99.90
23089;DHT22;11713;48.506;8.966;2023-07-30T09:33:39;20.30;99.90
23089;DHT22;11713;48.506;8.966;2023-07-30T09:36:07;20.10;99.90
23089;DHT22;11713;48.506;8.966;2023-07-30T09:38:39;20.10;99.90
23089;DHT22;11713;48.506;8.966;2023-07-30T09:41:05;19.90;99.90
23089;DHT22;11713;48.506;8.966;2023-07-30T09:43:35;19.90;99.90
23089;DHT22;11713;48.506;8.966;2023-07-30T09:46:02;20.00;99.90
23089;DHT22;11713;48.506;8.966;2023-07-30T09:48:32;20.00;99.90
23089;DHT22;11713;48.506;8.966;2023-07-30T09:51:01;20.20;99.90
23089;DHT22;11713;48.506;8.966;2023-07-30T09:53:33;20.40;99.90
23089;DHT22;11713;48.506;8.966;2023-07-30T09:56:04;20.50;99.90
23089;DHT22;11713;48.506;8.966;2023-07-30T09:58:31;20.50;99.90
23089;DHT22;11713;48.506;8.966;2023-07-30T10:00:58;20.60;99.90
23089;DHT22;11713;48.506;8.966;2023-07-30T10:03:26;20.60;99.90
23089;DHT22;11713;48.506;8.966;2023-07-30T10:05:57;20.60;99.90
23089;DHT22;11713;48.506;8.966;2023-07-30T10:08:27;20.70;99.90
23089;DHT22;11713;48.506;8.966;2023-07-30T10:10:57;20.70;99.90
23089;DHT22;11713;48.506;8.966;2023-07-30T10:13:23;20.60;99.90
23089;DHT22;11713;48.506;8.966;2023-07-30T10:15:50;20.60;99.90
23089;DHT22;11713;48.506;8.966;2023-07-30T10:18:17;20.70;99.90
23089;DHT22;11713;48.506;8.966;2023-07-30T10:20:52;20.80;99.90
23089;DHT22;11713;48.506;8.966;2023-07-30T10:23:19;20.80;99.90
23089;DHT22;11713;48.506;8.966;2023-07-30T10:25:47;20.90;99.90
23089;DHT22;11713;48.506;8.966;2023-07-30T10:28:33;20.90;99.90
23089;DHT22;11713;48.506;8.966;2023-07-30T10:31:06;20.90;99.90
23089;DHT22;11713;48.506;8.966;2023-07-30T10:33:49;21.00;99.90
23089;DHT22;11713;48.506;8.966;2023-07-30T10:36:18;21.30;99.90
23089;DHT22;11713;48.506;8.966;2023-07-30T10:38:45;21.40;99.90
23089;DHT22;11713;48.506;8.966;2023-07-30T10:41:15;21.40;99.90
23089;DHT22;11713;48.506;8.966;2023-07-30T10:43:47;21.40;99.90
23089;DHT22;11713;48.506;8.966;2023-07-30T10:46:16;21.60;99.90
23089;DHT22;11713;48.506;8.966;2023-07-30T10:48:44;21.70;99.90
23089;DHT22;11713;48.506;8.966;2023-07-30T10:51:12;22.00;99.90
23089;DHT22;11713;48.506;8.966;2023-07-30T10:53:38;22.30;99.90
23089;DHT22;11713;48.506;8.966;2023-07-30T10:56:06;22.70;99.90
23089;DHT22;11713;48.506;8.966;2023-07-30T10:58:34;22.90;99.90
23089;DHT22;11713;48.506;8.966;2023-07-30T11:01:07;23.10;99.90
23089;DHT22;11713;48.506;8.966;2023-07-30T11:03:34;23.40;99.90
23089;DHT22;11713;48.506;8.966;2023-07-30T11:06:01;23.60;99.90
23089;DHT22;11713;48.506;8.966;2023-07-30T11:08:37;23.80;99.90
23089;DHT22;11713;48.506;8.966;2023-07-30T11:11:04;23.70;99.90
23089;DHT22;11713;48.506;8.966;2023-07-30T11:13:40;23.50;99.90
23089;DHT22;11713;48.506;8.966;2023-07-30T11:16:08;23.50;99.90
23089;DHT22;11713;48.506;8.966;2023-07-30T11:18:38;23.30;99.90
23089;DHT22;11713;48.506;8.966;2023-07-30T11:21:11;23.20;99.90
23089;DHT22;11713;48.506;8.966;2023-07-30T11:23:40;23.00;99.90
23089;DHT22;11713;48.506;8.966;2023-07-30T11:26:09;23.10;99.90
23089;DHT22;11713;48.506;8.966;2023-07-30T11:28:37;23.10;99.90
23089;DHT22;11713;48.506;8.966;2023-07-30T11:31:09;23.10;99.90
23089;DHT22;11713;48.506;8.966;2023-07-30T11:33:36;23.30;99.90
23089;DHT22;11713;48.506;8.966;2023-07-30T11:36:04;23.30;99.90
23089;DHT22;11713;48.506;8.966;2023-07-30T11:38:31;23.30;99.90
23089;DHT22;11713;48.506;8.966;2023-07-30T11:40:58;23.20;99.90
23089;DHT22;11713;48.506;8.966;2023-07-30T11:43:24;23.10;99.90
23089;DHT22;11713;48.506;8.966;2023-07-30T11:46:09;23.10;99.90
23089;DHT22;11713;48.506;8.966;2023-07-30T11:48:36;23.00;99.90
23089;DHT22;11713;48.506;8.966;2023-07-30T11:51:02;22.90;99.90
23089;DHT22;11713;48.506;8.966;2023-07-30T11:53:48;22.90;99.90
23089;DHT22;11713;48.506;8.966;2023-07-30T11:56:19;22.90;99.90
23089;DHT22;11713;48.506;8.966;2023-07-30T11:58:47;23.00;99.90
23089;DHT22;11713;48.506;8.966;2023-07-30T12:01:15;23.10;99.90
23089;DHT22;11713;48.506;8.966;2023-07-30T12:03:41;23.40;99.90
23089;DHT22;11713;48.506;8.966;2023-07-30T12:06:07;23.60;99.90
23089;DHT22;11713;48.506;8.966;2023-07-30T12:08:35;23.70;99.90
23089;DHT22;11713;48.506;8.966;2023-07-30T12:11:09;23.60;99.90
23089;DHT22;11713;48.506;8.966;2023-07-30T12:13:42;24.00;99.90
23089;DHT22;11713;48.506;8.966;2023-07-30T12:16:11;24.20;99.90
23089;DHT22;11713;48.506;8.966;2023-07-30T12:18:38;24.20;99.90
23089;DHT22;11713;48.506;8.966;2023-07-30T12:21:05;24.30;99.90
23089;DHT22;11713;48.506;8.966;2023-07-30T12:23:34;24.30;99.90
23089;DHT22;11713;48.506;8.966;2023-07-30T12:26:01;24.30;99.90
23089;DHT22;11713;48.506;8.966;2023-07-30T12:28:33;24.50;99.90
23089;DHT22;11713;48.506;8.966;2023-07-30T12:31:01;24.70;99.90
23089;DHT22;11713;48.506;8.966;2023-07-30T12:33:27;24.90;99.90
23089;DHT22;11713;48.506;8.966;2023-07-30T12:35:53;24.90;99.90
23089;DHT22;11713;48.506;8.966;2023-07-30T12:38:19;24.80;99.90
23089;DHT22;11713;48.506;8.966;2023-07-30T12:40:45;24.60;99.90
23089;DHT22;11713;48.506;8.966;2023-07-30T12:43:11;24.40;99.90
23089;DHT22;11713;48.506;8.966;2023-07-30T12:45:37;24.20;99.90
23089;DHT22;11713;48.506;8.966;2023-07-30T12:48:04;24.00;99.90
23089;DHT22;11713;48.506;8.966;2023-07-30T12:50:30;23.90;99.90
23089;DHT22;11713;48.506;8.966;2023-07-30T12:52:56;24.00;99.90
23089;DHT22;11713;48.506;8.966;2023-07-30T12:55:22;23.90;99.90
23089;DHT22;11713;48.506;8.966;2023-07-30T12:57:47;24.00;99.90
23089;DHT22;11713;48.506;8.966;2023-07-30T13:00:14;24.10;99.90
23089;DHT22;11713;48.506;8.966;2023-07-30T13:02:39;24.30;99.90
23089;DHT22;11713;48.506;8.966;2023-07-30T13:05:06;24.50;99.90
23089;DHT22;11713;48.506;8.966;2023-07-30T13:07:31;24.50;99.90
23089;DHT22;11713;48.506;8.966;2023-07-30T13:10:08;24.40;99.90
23089;DHT22;11713;48.506;8.966;2023-07-30T13:12:34;24.40;99.90
23089;DHT22;11713;48.506;8.966;2023-07-30T13:15:01;24.30;99.90
23089;DHT22;11713;48.506;8.966;2023-07-30T13:17:27;24.20;99.90
23089;DHT22;11713;48.506;8.966;2023-07-30T13:19:53;24.10;99.90
23089;DHT22;11713;48.506;8.966;2023-07-30T13:22:19;23.90;99.90
23089;DHT22;11713;48.506;8.966;2023-07-30T13:24:45;23.80;99.90
23089;DHT22;11713;48.506;8.966;2023-07-30T13:27:11;23.70;99.90
23089;DHT22;11713;48.506;8.966;2023-07-30T13:29:37;23.70;99.90
23089;DHT22;11713;48.506;8.966;2023-07-30T13:32:04;23.70;99.90
23089;DHT22;11713;48.506;8.966;2023-07-30T13:34:32;23.80;99.90
23089;DHT22;11713;48.506;8.966;2023-07-30T13:36:59;24.00;99.90
23089;DHT22;11713;48.506;8.966;2023-07-30T13:39:29;23.80;99.90
23089;DHT22;11713;48.506;8.966;2023-07-30T13:41:57;23.90;99.90
23089;DHT22;11713;48.506;8.966;2023-07-30T13:44:23;23.90;99.90
23089;DHT22;11713;48.506;8.966;2023-07-30T13:46:49;24.00;99.90
23089;DHT22;11713;48.506;8.966;2023-07-30T13:49:16;24.00;99.90
23089;DHT22;11713;48.506;8.966;2023-07-30T13:51:43;24.10;99.90
23089;DHT22;11713;48.506;8.966;2023-07-30T13:54:22;24.50;99.90
23089;DHT22;11713;48.506;8.966;2023-07-30T13:56:51;24.80;99.90
23089;DHT22;11713;48.506;8.966;2023-07-30T13:59:19;25.10;99.90
23089;DHT22;11713;48.506;8.966;2023-07-30T14:01:45;25.10;99.90
23089;DHT22;11713;48.506;8.966;2023-07-30T14:04:11;24.90;99.90
23089;DHT22;11713;48.506;8.966;2023-07-30T14:06:37;24.90;99.90
23089;DHT22;11713;48.506;8.966;2023-07-30T14:09:03;24.70;99.90
23089;DHT22;11713;48.506;8.966;2023-07-30T14:11:30;24.70;99.90
23089;DHT22;11713;48.506;8.966;2023-07-30T14:13:55;25.10;99.90
23089;DHT22;11713;48.506;8.966;2023-07-30T14:16:23;25.20;99.90
23089;DHT22;11713;48.506;8.966;2023-07-30T14:18:49;25.40;99.90
23089;DHT22;11713;48.506;8.966;2023-07-30T14:21:15;25.60;99.90
23089;DHT22;11713;48.506;8.966;2023-07-30T14:23:41;25.70;99.90
23089;DHT22;11713;48.506;8.966;2023-07-30T14:26:07;25.90;99.90
23089;DHT22;11713;48.506;8.966;2023-07-30T14:28:33;26.00;99.90
23089;DHT22;11713;48.506;8.966;2023-07-30T14:30:59;26.00;99.90
23089;DHT22;11713;48.506;8.966;2023-07-30T14:33:24;26.10;99.90
23089;DHT22;11713;48.506;8.966;2023-07-30T14:35:50;26.10;99.90
23089;DHT22;11713;48.506;8.966;2023-07-30T14:38:16;26.00;99.90
23089;DHT22;11713;48.506;8.966;2023-07-30T14:40:43;26.20;99.90
23089;DHT22;11713;48.506;8.966;2023-07-30T14:43:09;26.50;99.90
23089;DHT22;11713;48.506;8.966;2023-07-30T14:45:35;26.70;99.90
23089;DHT22;11713;48.506;8.966;2023-07-30T14:48:01;26.70;99.90
23089;DHT22;11713;48.506;8.966;2023-07-30T14:50:27;26.70;99.90
23089;DHT22;11713;48.506;8.966;2023-07-30T14:52:54;26.70;99.90
23089;DHT22;11713;48.506;8.966;2023-07-30T14:55:20;26.90;99.90
23089;DHT22;11713;48.506;8.966;2023-07-30T14:57:46;26.70;99.90
23089;DHT22;11713;48.506;8.966;2023-07-30T15:00:13;26.40;99.90
23089;DHT22;11713;48.506;8.966;2023-07-30T15:02:42;26.20;99.90
23089;DHT22;11713;48.506;8.966;2023-07-30T15:05:08;25.90;99.90
23089;DHT22;11713;48.506;8.966;2023-07-30T15:07:34;26.00;99.90
23089;DHT22;11713;48.506;8.966;2023-07-30T15:10:00;26.00;99.90
23089;DHT22;11713;48.506;8.966;2023-07-30T15:12:26;26.00;99.90
23089;DHT22;11713;48.506;8.966;2023-07-30T15:14:52;25.90;99.90
23089;DHT22;11713;48.506;8.966;2023-07-30T15:17:17;25.80;99.90
23089;DHT22;11713;48.506;8.966;2023-07-30T15:19:44;25.70;99.90
23089;DHT22;11713;48.506;8.966;2023-07-30T15:22:13;25.60;99.90
23089;DHT22;11713;48.506;8.966;2023-07-30T15:24:39;25.60;99.90
23089;DHT22;11713;48.506;8.966;2023-07-30T15:27:05;25.60;99.90
23089;DHT22;11713;48.506;8.966;2023-07-30T15:29:31;25.50;99.90